Paso Robles, CA

11:20 AM PDT on September 22, 2014 (GMT -0700)
Montebello Oaks | Change Station
CLOSE
Current Station
Personal Weather Station
Location: Paso Robles, CA
Elevation: 869 ft
Nearby Weather Stations

Elev 869 ft 35.64 °N, 120.67 °W | Updated 4 minutes ago

Clear
Clear
73.5 °F
Feels Like 76 °F
N
1.0
Wind Variable Wind from ESE
Gusts 7.0 mph

Today
High -- | Low -- °F
--% Chance of Precip.
Yesterday
High -- | Low -- °F
Precip. -- in
6:50 AM 6:59 PM
Waning Crescent, 2% visible
Pressure 30.01 in
Visibility 10.0 miles
Clouds Clear
Heat Index 76 °F
Dew Point 61 °F
Humidity 66%
Rainfall 0.00 in
Snow Depth 0 in , 0 in , 1 in
UV 6 out of 12
Pollen 6.00 out of 12
Air Quality Not available.
Flu Activity Not available.
METAR KPRB 221753Z AUTO 33005KT 10SM CLR 22/14 A3003 RMK AO2 SLP163 T02170139 10217 20144 50001 TSNO $

More Conditions Fewer Conditions

Pressure 30.01 in
Visibility 10.0 miles
Clouds Clear
Heat Index 76 °F
Dew Point 61 °F
Humidity 66%
Rainfall 0.00 in
Snow Depth 0 in , 0 in , 1 in
UV 6 out of 12
Pollen 6.00 out of 12
Air Quality Not available.
Flu Activity Not available.
METAR KPRB 221753Z AUTO 33005KT 10SM CLR 22/14 A3003 RMK AO2 SLP163 T02170139 10217 20144 50001 TSNO $

More Conditions Fewer Conditions

10-Day Weather Forecast

Almanac

Astronomy

Sep. 22, 2014 Rise Set
Actual Time 6:50 AM PDT 6:59 PM PDT
Civil Twilight 6:25 AM PDT 7:24 PM PDT
Nautical Twilight 5:55 AM PDT 7:54 PM PDT
Astronomical Twilight 5:25 AM PDT 8:24 PM PDT
Moon 5:26 AM PDT 6:08 PM PDT
Length of Visible Light 12h 59m
Length of Day
12h 08m
Tomorrow will be 2m 14s shorter.
Waning Crescent, 2% of the Moon is Illuminated
Today
Waning Crescent
Sep 24
New
Oct 1
First Quarter
Oct 8
Full
Oct 15
Last Quarter

Today's Extremes

State Highs State Lows

Community

WunderPhotos

Upload Photos

1,755,506 photos uploaded!

WunderBlogs® & News

By Dr. Jeff Masters
Director of Meteorology, Weather Underground
By Kari Strenfel
Meteorologist, Weather Underground
By Christopher C. Burt
Weather Historian, Weather Underground
September 22, 2014
September 22, 2014
September 22, 2014

Nearby

Snow Depth

Station Depth Elevation
Tahoe City Cross 0 in 6750 ft
Summit Meadow 0 in 9122 ft
Spratt Creek 1 in 6200 ft
Rubicon #2 0 in 7500 ft
Fallen Leaf 0 in 6300 ft

Earthquake Activity

City Distance Mag. Time & Date
Corcoran, California 64 miles 2.9 3:59 PM PDT
2014-09-18
Minimum magnitude displayed is 2.5.

Coastal Water Temperatures

Place Temperature
No Stations Reporting

Nearby Weather Stations